sensor_id;sensor_type;location;lat;lon;timestamp;pressure;altitude;pressure_sealevel;temperature;humidity
80335;BME280;69653;52.674;13.574;2023-05-17T00:00:46;100986.22;;;5.88;68.89
80335;BME280;69653;52.674;13.574;2023-05-17T00:03:12;100977.44;;;5.81;68.88
80335;BME280;69653;52.674;13.574;2023-05-17T00:05:37;100981.28;;;5.80;69.72
80335;BME280;69653;52.674;13.574;2023-05-17T00:08:02;100981.22;;;5.75;69.79
80335;BME280;69653;52.674;13.574;2023-05-17T00:10:28;100997.03;;;5.83;70.00
80335;BME280;69653;52.674;13.574;2023-05-17T00:12:53;100990.69;;;5.72;70.39
80335;BME280;69653;52.674;13.574;2023-05-17T00:15:19;100985.75;;;5.64;70.30
80335;BME280;69653;52.674;13.574;2023-05-17T00:17:44;100977.25;;;5.56;70.21
80335;BME280;69653;52.674;13.574;2023-05-17T00:20:10;100966.69;;;5.59;69.60
80335;BME280;69653;52.674;13.574;2023-05-17T00:22:35;100966.16;;;5.57;69.64
80335;BME280;69653;52.674;13.574;2023-05-17T00:25:01;100977.53;;;5.59;69.38
80335;BME280;69653;52.674;13.574;2023-05-17T00:27:26;100990.88;;;5.66;69.36
80335;BME280;69653;52.674;13.574;2023-05-17T00:29:51;100998.84;;;5.72;69.80
80335;BME280;69653;52.674;13.574;2023-05-17T00:32:17;100990.34;;;5.64;69.59
80335;BME280;69653;52.674;13.574;2023-05-17T00:34:42;100982.16;;;5.59;70.13
80335;BME280;69653;52.674;13.574;2023-05-17T00:37:07;100976.16;;;5.57;70.01
80335;BME280;69653;52.674;13.574;2023-05-17T00:39:33;100980.78;;;5.56;70.04
80335;BME280;69653;52.674;13.574;2023-05-17T00:41:59;100985.06;;;5.52;70.01
80335;BME280;69653;52.674;13.574;2023-05-17T00:44:25;100999.47;;;5.53;70.41
80335;BME280;69653;52.674;13.574;2023-05-17T00:46:50;100984.69;;;5.38;71.25
80335;BME280;69653;52.674;13.574;2023-05-17T00:49:16;100996.06;;;5.41;71.17
80335;BME280;69653;52.674;13.574;2023-05-17T00:51:42;100968.88;;;5.30;71.68
80335;BME280;69653;52.674;13.574;2023-05-17T00:54:08;100980.03;;;5.34;71.51
80335;BME280;69653;52.674;13.574;2023-05-17T00:56:34;100979.47;;;5.32;71.46
80335;BME280;69653;52.674;13.574;2023-05-17T00:59:01;100988.97;;;5.34;71.51
80335;BME280;69653;52.674;13.574;2023-05-17T01:01:28;100995.47;;;5.33;71.57
80335;BME280;69653;52.674;13.574;2023-05-17T01:03:54;100972.31;;;5.21;72.81
80335;BME280;69653;52.674;13.574;2023-05-17T01:06:19;100970.66;;;5.20;72.61
80335;BME280;69653;52.674;13.574;2023-05-17T01:08:45;100973.59;;;5.18;73.42
80335;BME280;69653;52.674;13.574;2023-05-17T01:16:46;101010.91;;;5.33;74.01
80335;BME280;69653;52.674;13.574;2023-05-17T01:22:19;101022.38;;;5.40;74.90
80335;BME280;69653;52.674;13.574;2023-05-17T01:27:35;100995.81;;;5.15;75.57
80335;BME280;69653;52.674;13.574;2023-05-17T01:30:04;100992.78;;;5.12;75.69
80335;BME280;69653;52.674;13.574;2023-05-17T01:32:32;101016.78;;;5.25;76.16
80335;BME280;69653;52.674;13.574;2023-05-17T01:34:57;101000.31;;;5.05;76.84
80335;BME280;69653;52.674;13.574;2023-05-17T01:37:23;101018.25;;;5.11;77.25
80335;BME280;69653;52.674;13.574;2023-05-17T01:39:48;101031.28;;;5.14;77.05
80335;BME280;69653;52.674;13.574;2023-05-17T01:42:22;101025.00;;;5.08;77.86
80335;BME280;69653;52.674;13.574;2023-05-17T01:50:21;101002.38;;;4.98;78.63
80335;BME280;69653;52.674;13.574;2023-05-17T01:52:52;101018.69;;;5.03;79.13
80335;BME280;69653;52.674;13.574;2023-05-17T01:55:42;101042.91;;;5.31;78.96
80335;BME280;69653;52.674;13.574;2023-05-17T01:58:10;101016.75;;;5.20;79.06
80335;BME280;69653;52.674;13.574;2023-05-17T02:00:37;101005.78;;;5.10;79.27
80335;BME280;69653;52.674;13.574;2023-05-17T02:03:04;101016.13;;;5.13;79.14
80335;BME280;69653;52.674;13.574;2023-05-17T02:05:29;101043.22;;;5.34;79.03
80335;BME280;69653;52.674;13.574;2023-05-17T02:07:54;101034.97;;;5.24;79.46
80335;BME280;69653;52.674;13.574;2023-05-17T02:10:20;101043.97;;;5.30;79.55
80335;BME280;69653;52.674;13.574;2023-05-17T02:12:46;101050.28;;;5.35;80.01
80335;BME280;69653;52.674;13.574;2023-05-17T02:15:11;101014.47;;;5.12;80.08
80335;BME280;69653;52.674;13.574;2023-05-17T02:17:38;101044.06;;;5.40;80.01
80335;BME280;69653;52.674;13.574;2023-05-17T02:20:06;101009.16;;;5.22;79.47
80335;BME280;69653;52.674;13.574;2023-05-17T02:22:31;100997.78;;;5.20;80.05
80335;BME280;69653;52.674;13.574;2023-05-17T02:24:56;101007.66;;;5.31;80.37
80335;BME280;69653;52.674;13.574;2023-05-17T02:27:22;101050.28;;;5.62;80.29
80335;BME280;69653;52.674;13.574;2023-05-17T02:29:47;101013.25;;;5.51;80.27
80335;BME280;69653;52.674;13.574;2023-05-17T02:32:12;101034.72;;;5.79;80.00
80335;BME280;69653;52.674;13.574;2023-05-17T02:34:38;101002.31;;;5.68;79.40
80335;BME280;69653;52.674;13.574;2023-05-17T02:37:03;101019.56;;;5.83;79.52
80335;BME280;69653;52.674;13.574;2023-05-17T02:39:31;100990.09;;;5.65;79.45
80335;BME280;69653;52.674;13.574;2023-05-17T02:41:56;100989.00;;;5.66;80.01
80335;BME280;69653;52.674;13.574;2023-05-17T02:44:22;101003.53;;;5.82;80.25
80335;BME280;69653;52.674;13.574;2023-05-17T02:46:47;100981.00;;;5.81;79.04
80335;BME280;69653;52.674;13.574;2023-05-17T02:49:12;100992.59;;;5.99;79.38
80335;BME280;69653;52.674;13.574;2023-05-17T02:51:37;100986.09;;;6.05;78.72
80335;BME280;69653;52.674;13.574;2023-05-17T02:54:03;100992.13;;;6.12;78.71
80335;BME280;69653;52.674;13.574;2023-05-17T02:56:28;101022.09;;;6.27;78.42
80335;BME280;69653;52.674;13.574;2023-05-17T02:58:53;100997.63;;;6.22;78.50
80335;BME280;69653;52.674;13.574;2023-05-17T03:01:21;100995.44;;;6.19;78.67
80335;BME280;69653;52.674;13.574;2023-05-17T03:03:47;100997.56;;;6.12;78.63
80335;BME280;69653;52.674;13.574;2023-05-17T03:06:12;101021.81;;;6.23;78.56
80335;BME280;69653;52.674;13.574;2023-05-17T03:08:38;101015.91;;;6.31;78.29
80335;BME280;69653;52.674;13.574;2023-05-17T03:11:04;101015.06;;;6.31;78.68
80335;BME280;69653;52.674;13.574;2023-05-17T03:13:30;101008.28;;;6.33;78.03
80335;BME280;69653;52.674;13.574;2023-05-17T03:15:55;101015.69;;;6.43;78.22
80335;BME280;69653;52.674;13.574;2023-05-17T03:18:20;101022.25;;;6.47;77.96
80335;BME280;69653;52.674;13.574;2023-05-17T03:20:46;101052.28;;;6.72;77.29
80335;BME280;69653;52.674;13.574;2023-05-17T03:23:11;101017.38;;;6.49;77.48
80335;BME280;69653;52.674;13.574;2023-05-17T03:25:36;101032.13;;;6.63;77.53
80335;BME280;69653;52.674;13.574;2023-05-17T03:28:02;101063.78;;;6.90;77.63
80335;BME280;69653;52.674;13.574;2023-05-17T03:30:27;101045.78;;;6.78;77.03
80335;BME280;69653;52.674;13.574;2023-05-17T03:32:52;101041.41;;;6.72;77.35
80335;BME280;69653;52.674;13.574;2023-05-17T03:35:18;101015.50;;;6.60;77.63
80335;BME280;69653;52.674;13.574;2023-05-17T03:37:43;101027.78;;;6.62;77.79
80335;BME280;69653;52.674;13.574;2023-05-17T03:40:09;101018.50;;;6.58;77.34
80335;BME280;69653;52.674;13.574;2023-05-17T03:42:35;101047.34;;;6.64;77.95
80335;BME280;69653;52.674;13.574;2023-05-17T03:45:01;101033.16;;;6.57;78.09
80335;BME280;69653;52.674;13.574;2023-05-17T03:47:26;101039.66;;;6.51;78.27
80335;BME280;69653;52.674;13.574;2023-05-17T03:49:52;101041.31;;;6.57;78.47
80335;BME280;69653;52.674;13.574;2023-05-17T03:52:17;101041.31;;;6.57;78.33
80335;BME280;69653;52.674;13.574;2023-05-17T03:54:42;101044.88;;;6.58;78.59
80335;BME280;69653;52.674;13.574;2023-05-17T03:57:08;101042.69;;;6.55;77.83
80335;BME280;69653;52.674;13.574;2023-05-17T03:59:33;101049.25;;;6.64;78.68
80335;BME280;69653;52.674;13.574;2023-05-17T04:01:58;101059.88;;;6.70;78.58
80335;BME280;69653;52.674;13.574;2023-05-17T04:04:24;101036.47;;;6.64;78.30
80335;BME280;69653;52.674;13.574;2023-05-17T04:06:49;101052.81;;;6.74;78.54
80335;BME280;69653;52.674;13.574;2023-05-17T04:09:15;101096.00;;;7.13;77.53
80335;BME280;69653;52.674;13.574;2023-05-17T04:11:41;101059.53;;;7.09;77.09
80335;BME280;69653;52.674;13.574;2023-05-17T04:14:06;101089.59;;;7.49;76.58
80335;BME280;69653;52.674;13.574;2023-05-17T04:16:32;101109.31;;;7.92;76.87
80335;BME280;69653;52.674;13.574;2023-05-17T04:19:00;101110.72;;;8.24;74.86
80335;BME280;69653;52.674;13.574;2023-05-17T04:21:26;101097.97;;;8.40;72.93
80335;BME280;69653;52.674;13.574;2023-05-17T04:23:51;101086.22;;;8.65;72.25
80335;BME280;69653;52.674;13.574;2023-05-17T04:26:17;101069.03;;;8.74;71.70
80335;BME280;69653;52.674;13.574;2023-05-17T04:28:42;101072.28;;;8.76;71.34
80335;BME280;69653;52.674;13.574;2023-05-17T04:31:08;101074.47;;;8.74;70.99
80335;BME280;69653;52.674;13.574;2023-05-17T04:33:34;101094.13;;;8.61;71.69
80335;BME280;69653;52.674;13.574;2023-05-17T04:36:01;101097.41;;;8.58;71.81
80335;BME280;69653;52.674;13.574;2023-05-17T04:38:27;101085.13;;;8.46;71.84
80335;BME280;69653;52.674;13.574;2023-05-17T04:40:52;101121.38;;;8.46;72.60
80335;BME280;69653;52.674;13.574;2023-05-17T04:43:17;101125.22;;;8.40;72.63
80335;BME280;69653;52.674;13.574;2023-05-17T04:45:43;101135.00;;;8.41;72.59
80335;BME280;69653;52.674;13.574;2023-05-17T04:48:08;101141.56;;;8.40;72.68
80335;BME280;69653;52.674;13.574;2023-05-17T04:50:34;101110.44;;;8.06;73.47
80335;BME280;69653;52.674;13.574;2023-05-17T04:53:00;101128.69;;;8.10;73.66
80335;BME280;69653;52.674;13.574;2023-05-17T04:55:25;101120.22;;;7.92;73.03
80335;BME280;69653;52.674;13.574;2023-05-17T04:57:50;101121.31;;;7.96;73.08
80335;BME280;69653;52.674;13.574;2023-05-17T05:00:16;101142.91;;;8.53;71.99
80335;BME280;69653;52.674;13.574;2023-05-17T05:02:42;101167.94;;;9.05;70.65
80335;BME280;69653;52.674;13.574;2023-05-17T05:05:10;101179.88;;;9.45;69.12
80335;BME280;69653;52.674;13.574;2023-05-17T05:07:35;101144.91;;;9.52;67.83
80335;BME280;69653;52.674;13.574;2023-05-17T05:10:02;101142.88;;;9.78;67.25
80335;BME280;69653;52.674;13.574;2023-05-17T05:12:27;101138.16;;;9.88;65.42
80335;BME280;69653;52.674;13.574;2023-05-17T05:14:52;101147.66;;;10.01;64.78
80335;BME280;69653;52.674;13.574;2023-05-17T05:17:18;101187.03;;;10.44;63.93
80335;BME280;69653;52.674;13.574;2023-05-17T05:19:44;101197.84;;;10.59;63.27
80335;BME280;69653;52.674;13.574;2023-05-17T05:22:09;101169.16;;;10.56;62.06
80335;BME280;69653;52.674;13.574;2023-05-17T05:24:35;101173.13;;;10.74;60.94
80335;BME280;69653;52.674;13.574;2023-05-17T05:27:00;101177.19;;;11.05;60.25
80335;BME280;69653;52.674;13.574;2023-05-17T05:29:26;101196.28;;;11.39;59.52
80335;BME280;69653;52.674;13.574;2023-05-17T05:31:51;101211.41;;;11.60;59.20
80335;BME280;69653;52.674;13.574;2023-05-17T05:34:16;101177.13;;;11.63;57.56
80335;BME280;69653;52.674;13.574;2023-05-17T05:36:42;101187.97;;;11.73;57.65
80335;BME280;69653;52.674;13.574;2023-05-17T05:39:08;101176.72;;;11.75;57.68
80335;BME280;69653;52.674;13.574;2023-05-17T05:41:33;101180.81;;;11.77;57.15
80335;BME280;69653;52.674;13.574;2023-05-17T05:43:59;101181.78;;;11.62;56.16
80335;BME280;69653;52.674;13.574;2023-05-17T05:46:25;101177.06;;;11.68;56.03
80335;BME280;69653;52.674;13.574;2023-05-17T05:48:50;101224.09;;;11.99;55.10
80335;BME280;69653;52.674;13.574;2023-05-17T05:51:16;101207.53;;;12.09;54.68
80335;BME280;69653;52.674;13.574;2023-05-17T05:53:42;101216.50;;;12.52;53.06
80335;BME280;69653;52.674;13.574;2023-05-17T05:56:08;101196.34;;;12.24;52.17
80335;BME280;69653;52.674;13.574;2023-05-17T05:58:33;101200.47;;;12.03;52.96
80335;BME280;69653;52.674;13.574;2023-05-17T06:00:59;101214.84;;;12.32;51.68
80335;BME280;69653;52.674;13.574;2023-05-17T06:03:24;101191.19;;;12.55;52.64
80335;BME280;69653;52.674;13.574;2023-05-17T06:05:50;101235.44;;;12.86;51.92
80335;BME280;69653;52.674;13.574;2023-05-17T06:08:15;101237.88;;;13.06;50.55
80335;BME280;69653;52.674;13.574;2023-05-17T06:10:41;101219.19;;;12.89;51.49
80335;BME280;69653;52.674;13.574;2023-05-17T06:13:06;101233.94;;;12.93;50.59
80335;BME280;69653;52.674;13.574;2023-05-17T06:15:31;101256.03;;;13.02;49.78
80335;BME280;69653;52.674;13.574;2023-05-17T06:17:57;101258.66;;;12.93;50.27
80335;BME280;69653;52.674;13.574;2023-05-17T06:20:22;101270.00;;;12.87;50.15
80335;BME280;69653;52.674;13.574;2023-05-17T06:22:48;101241.28;;;12.28;50.50
80335;BME280;69653;52.674;13.574;2023-05-17T06:25:13;101244.16;;;12.37;50.65
80335;BME280;69653;52.674;13.574;2023-05-17T06:27:38;101231.69;;;12.26;51.49
80335;BME280;69653;52.674;13.574;2023-05-17T06:30:05;101240.34;;;12.51;50.90
80335;BME280;69653;52.674;13.574;2023-05-17T06:32:30;101272.78;;;12.68;50.93
80335;BME280;69653;52.674;13.574;2023-05-17T06:34:56;101238.03;;;12.21;51.60
80335;BME280;69653;52.674;13.574;2023-05-17T06:37:22;101225.75;;;12.19;52.02
80335;BME280;69653;52.674;13.574;2023-05-17T06:39:50;101263.72;;;12.06;52.20
80335;BME280;69653;52.674;13.574;2023-05-17T06:42:15;101221.78;;;12.06;52.07
80335;BME280;69653;52.674;13.574;2023-05-17T06:44:41;101254.63;;;12.53;51.20
80335;BME280;69653;52.674;13.574;2023-05-17T06:47:06;101260.53;;;13.30;48.89
80335;BME280;69653;52.674;13.574;2023-05-17T06:49:31;101252.19;;;13.35;46.89
80335;BME280;69653;52.674;13.574;2023-05-17T06:51:57;101244.50;;;13.51;45.92
80335;BME280;69653;52.674;13.574;2023-05-17T06:54:28;101241.00;;;14.27;44.36
80335;BME280;69653;52.674;13.574;2023-05-17T06:56:53;101249.38;;;14.94;42.18
80335;BME280;69653;52.674;13.574;2023-05-17T06:59:18;101234.56;;;15.03;41.41
80335;BME280;69653;52.674;13.574;2023-05-17T07:01:44;101261.22;;;15.47;40.47
80335;BME280;69653;52.674;13.574;2023-05-17T07:04:09;101257.03;;;15.89;40.60
80335;BME280;69653;52.674;13.574;2023-05-17T07:06:34;101260.34;;;16.09;39.84
80335;BME280;69653;52.674;13.574;2023-05-17T07:09:00;101270.63;;;15.77;40.30
80335;BME280;69653;52.674;13.574;2023-05-17T07:11:25;101258.03;;;15.54;40.92
80335;BME280;69653;52.674;13.574;2023-05-17T07:13:51;101257.97;;;14.92;40.96
80335;BME280;69653;52.674;13.574;2023-05-17T07:16:16;101284.72;;;15.00;40.95
80335;BME280;69653;52.674;13.574;2023-05-17T07:18:41;101248.00;;;14.83;39.49
80335;BME280;69653;52.674;13.574;2023-05-17T07:21:07;101250.63;;;14.66;39.61
80335;BME280;69653;52.674;13.574;2023-05-17T07:23:32;101293.50;;;14.80;39.88
80335;BME280;69653;52.674;13.574;2023-05-17T07:25:57;101257.38;;;15.04;39.18
80335;BME280;69653;52.674;13.574;2023-05-17T07:28:23;101269.63;;;15.42;38.24
80335;BME280;69653;52.674;13.574;2023-05-17T07:30:48;101264.22;;;15.60;38.28
80335;BME280;69653;52.674;13.574;2023-05-17T07:33:13;101276.63;;;16.19;37.89
80335;BME280;69653;52.674;13.574;2023-05-17T07:35:39;101271.81;;;16.50;37.20
80335;BME280;69653;52.674;13.574;2023-05-17T07:38:04;101292.00;;;17.02;36.08
80335;BME280;69653;52.674;13.574;2023-05-17T07:40:29;101281.41;;;17.30;33.53
80335;BME280;69653;52.674;13.574;2023-05-17T07:42:55;101313.53;;;17.69;32.95
80335;BME280;69653;52.674;13.574;2023-05-17T07:45:20;101308.19;;;17.46;33.74
80335;BME280;69653;52.674;13.574;2023-05-17T07:47:45;101314.03;;;17.71;33.64
80335;BME280;69653;52.674;13.574;2023-05-17T07:50:11;101301.16;;;17.75;33.38
80335;BME280;69653;52.674;13.574;2023-05-17T07:52:36;101292.63;;;17.88;31.47
80335;BME280;69653;52.674;13.574;2023-05-17T07:55:02;101311.31;;;18.29;30.92
80335;BME280;69653;52.674;13.574;2023-05-17T07:57:29;101295.00;;;18.36;31.02
80335;BME280;69653;52.674;13.574;2023-05-17T07:59:55;101290.28;;;18.37;31.26
80335;BME280;69653;52.674;13.574;2023-05-17T08:02:20;101307.28;;;18.56;30.93
80335;BME280;69653;52.674;13.574;2023-05-17T08:04:45;101315.88;;;18.84;31.50
80335;BME280;69653;52.674;13.574;2023-05-17T08:07:11;101303.56;;;18.73;31.02
80335;BME280;69653;52.674;13.574;2023-05-17T08:09:36;101319.31;;;18.81;30.28
80335;BME280;69653;52.674;13.574;2023-05-17T08:12:01;101331.84;;;18.87;30.54
80335;BME280;69653;52.674;13.574;2023-05-17T08:14:27;101343.50;;;19.34;30.09
80335;BME280;69653;52.674;13.574;2023-05-17T08:16:52;101353.06;;;19.04;30.46
80335;BME280;69653;52.674;13.574;2023-05-17T08:19:18;101338.72;;;18.81;29.38
80335;BME280;69653;52.674;13.574;2023-05-17T08:21:43;101343.31;;;19.18;29.39
80335;BME280;69653;52.674;13.574;2023-05-17T08:24:10;101325.84;;;19.38;29.24
80335;BME280;69653;52.674;13.574;2023-05-17T08:26:36;101315.50;;;19.48;28.88
80335;BME280;69653;52.674;13.574;2023-05-17T08:29:02;101338.38;;;19.90;27.19
80335;BME280;69653;52.674;13.574;2023-05-17T08:31:29;101319.44;;;19.59;27.74
80335;BME280;69653;52.674;13.574;2023-05-17T08:33:55;101348.25;;;19.66;28.98
80335;BME280;69653;52.674;13.574;2023-05-17T08:36:20;101321.19;;;19.63;28.06
80335;BME280;69653;52.674;13.574;2023-05-17T08:38:46;101332.38;;;20.12;27.39
80335;BME280;69653;52.674;13.574;2023-05-17T08:41:12;101334.69;;;20.22;26.71
80335;BME280;69653;52.674;13.574;2023-05-17T08:43:38;101328.25;;;20.54;26.06
80335;BME280;69653;52.674;13.574;2023-05-17T08:46:03;101312.00;;;20.08;27.54
80335;BME280;69653;52.674;13.574;2023-05-17T08:48:29;101330.88;;;20.26;27.37
80335;BME280;69653;52.674;13.574;2023-05-17T08:51:02;101340.81;;;20.15;26.86
80335;BME280;69653;52.674;13.574;2023-05-17T08:53:28;101334.72;;;20.46;25.82
80335;BME280;69653;52.674;13.574;2023-05-17T08:55:57;101340.94;;;20.67;26.15
80335;BME280;69653;52.674;13.574;2023-05-17T08:58:26;101326.16;;;20.39;26.47
80335;BME280;69653;52.674;13.574;2023-05-17T09:00:55;101353.38;;;20.58;26.87
80335;BME280;69653;52.674;13.574;2023-05-17T09:03:21;101335.75;;;20.54;25.76
80335;BME280;69653;52.674;13.574;2023-05-17T09:05:51;101327.16;;;20.71;25.66
80335;BME280;69653;52.674;13.574;2023-05-17T09:08:22;101322.94;;;20.89;25.99
80335;BME280;69653;52.674;13.574;2023-05-17T09:10:49;101365.53;;;21.05;24.84
80335;BME280;69653;52.674;13.574;2023-05-17T09:13:15;101347.47;;;20.99;24.21
80335;BME280;69653;52.674;13.574;2023-05-17T09:15:46;101316.19;;;21.02;25.13
80335;BME280;69653;52.674;13.574;2023-05-17T09:18:12;101322.56;;;21.43;23.53
80335;BME280;69653;52.674;13.574;2023-05-17T09:20:38;101324.06;;;21.40;25.06
80335;BME280;69653;52.674;13.574;2023-05-17T09:23:06;101346.84;;;21.89;24.63
80335;BME280;69653;52.674;13.574;2023-05-17T09:25:33;101326.28;;;21.78;25.05
80335;BME280;69653;52.674;13.574;2023-05-17T09:28:03;101351.84;;;22.11;24.47
80335;BME280;69653;52.674;13.574;2023-05-17T09:30:30;101328.09;;;21.86;24.73
80335;BME280;69653;52.674;13.574;2023-05-17T09:32:56;101316.41;;;21.81;24.16
80335;BME280;69653;52.674;13.574;2023-05-17T09:35:28;101323.22;;;21.67;23.79
80335;BME280;69653;52.674;13.574;2023-05-17T09:37:56;101329.63;;;21.84;24.00
80335;BME280;69653;52.674;13.574;2023-05-17T09:40:28;101322.00;;;21.81;23.50
80335;BME280;69653;52.674;13.574;2023-05-17T09:42:54;101333.94;;;21.81;22.93
80335;BME280;69653;52.674;13.574;2023-05-17T09:45:22;101331.16;;;21.81;23.63
80335;BME280;69653;52.674;13.574;2023-05-17T09:47:48;101345.69;;;21.90;23.75
80335;BME280;69653;52.674;13.574;2023-05-17T09:50:17;101339.81;;;21.92;24.07
80335;BME280;69653;52.674;13.574;2023-05-17T09:52:43;101362.00;;;22.04;22.97
80335;BME280;69653;52.674;13.574;2023-05-17T09:55:09;101334.34;;;21.67;22.72
80335;BME280;69653;52.674;13.574;2023-05-17T09:57:37;101344.94;;;21.62;23.41
80335;BME280;69653;52.674;13.574;2023-05-17T10:00:03;101354.13;;;21.78;23.89
80335;BME280;69653;52.674;13.574;2023-05-17T10:02:35;101378.81;;;22.23;23.16
80335;BME280;69653;52.674;13.574;2023-05-17T10:05:03;101364.97;;;22.27;22.67
80335;BME280;69653;52.674;13.574;2023-05-17T10:07:33;101342.41;;;22.00;23.45
80335;BME280;69653;52.674;13.574;2023-05-17T10:09:59;101360.56;;;22.26;23.62
80335;BME280;69653;52.674;13.574;2023-05-17T10:12:27;101366.06;;;21.78;24.26
80335;BME280;69653;52.674;13.574;2023-05-17T10:14:55;101343.75;;;21.07;24.46
80335;BME280;69653;52.674;13.574;2023-05-17T10:17:21;101366.59;;;21.41;23.30
80335;BME280;69653;52.674;13.574;2023-05-17T10:19:48;101341.84;;;21.36;24.11
80335;BME280;69653;52.674;13.574;2023-05-17T10:22:14;101347.75;;;21.77;23.95
80335;BME280;69653;52.674;13.574;2023-05-17T10:24:42;101360.38;;;22.03;23.59
80335;BME280;69653;52.674;13.574;2023-05-17T10:27:08;101350.66;;;21.97;23.59
80335;BME280;69653;52.674;13.574;2023-05-17T10:29:35;101354.81;;;22.18;23.50
80335;BME280;69653;52.674;13.574;2023-05-17T10:32:03;101371.50;;;22.34;23.33
80335;BME280;69653;52.674;13.574;2023-05-17T10:34:33;101359.69;;;22.21;23.04
80335;BME280;69653;52.674;13.574;2023-05-17T10:37:00;101340.34;;;22.29;22.43
80335;BME280;69653;52.674;13.574;2023-05-17T10:39:26;101372.97;;;22.28;23.16
80335;BME280;69653;52.674;13.574;2023-05-17T10:41:54;101377.16;;;21.91;23.81
80335;BME280;69653;52.674;13.574;2023-05-17T10:44:20;101350.00;;;21.72;22.00
80335;BME280;69653;52.674;13.574;2023-05-17T10:46:54;101362.53;;;21.94;22.63
80335;BME280;69653;52.674;13.574;2023-05-17T10:49:23;101354.13;;;21.78;23.31
80335;BME280;69653;52.674;13.574;2023-05-17T10:51:49;101376.34;;;22.37;22.45
80335;BME280;69653;52.674;13.574;2023-05-17T10:54:15;101348.56;;;22.41;22.58
80335;BME280;69653;52.674;13.574;2023-05-17T10:56:50;101382.13;;;22.44;22.80
80335;BME280;69653;52.674;13.574;2023-05-17T10:59:26;101390.84;;;22.43;22.77
80335;BME280;69653;52.674;13.574;2023-05-17T11:01:57;101357.97;;;22.33;21.75
80335;BME280;69653;52.674;13.574;2023-05-17T11:04:31;101354.44;;;22.36;23.17
80335;BME280;69653;52.674;13.574;2023-05-17T11:10:03;101398.94;;;22.48;22.71
80335;BME280;69653;52.674;13.574;2023-05-17T11:12:46;101365.31;;;22.09;22.95
80335;BME280;69653;52.674;13.574;2023-05-17T11:15:22;101379.34;;;22.29;22.81
80335;BME280;69653;52.674;13.574;2023-05-17T11:17:50;101394.53;;;22.62;22.21
80335;BME280;69653;52.674;13.574;2023-05-17T11:22:57;101385.69;;;22.60;22.15
80335;BME280;69653;52.674;13.574;2023-05-17T11:25:23;101386.00;;;22.55;21.79
80335;BME280;69653;52.674;13.574;2023-05-17T11:27:51;101367.63;;;22.54;22.08
80335;BME280;69653;52.674;13.574;2023-05-17T11:30:21;101391.97;;;22.89;21.27
80335;BME280;69653;52.674;13.574;2023-05-17T11:32:49;101357.50;;;22.31;21.02
80335;BME280;69653;52.674;13.574;2023-05-17T11:35:22;101364.34;;;22.33;21.97
80335;BME280;69653;52.674;13.574;2023-05-17T11:37:50;101376.34;;;22.37;21.68
80335;BME280;69653;52.674;13.574;2023-05-17T11:40:24;101352.63;;;21.81;22.81
80335;BME280;69653;52.674;13.574;2023-05-17T11:43:08;101362.63;;;22.13;22.14
80335;BME280;69653;52.674;13.574;2023-05-17T11:46:00;101391.53;;;21.93;22.44
80335;BME280;69653;52.674;13.574;2023-05-17T11:48:28;101363.34;;;21.66;23.70
80335;BME280;69653;52.674;13.574;2023-05-17T11:50:54;101352.94;;;21.91;22.65
80335;BME280;69653;52.674;13.574;2023-05-17T11:53:25;101378.19;;;22.14;21.77
80335;BME280;69653;52.674;13.574;2023-05-17T11:55:52;101388.88;;;22.43;21.03
80335;BME280;69653;52.674;13.574;2023-05-17T11:58:25;101368.19;;;21.97;22.07
80335;BME280;69653;52.674;13.574;2023-05-17T12:00:52;101363.16;;;22.18;21.53
80335;BME280;69653;52.674;13.574;2023-05-17T12:05:51;101362.16;;;22.11;21.06
80335;BME280;69653;52.674;13.574;2023-05-17T12:08:25;101366.31;;;22.01;21.66
80335;BME280;69653;52.674;13.574;2023-05-17T12:10:51;101381.22;;;21.93;20.92
80335;BME280;69653;52.674;13.574;2023-05-17T12:13:17;101362.91;;;21.92;21.60
80335;BME280;69653;52.674;13.574;2023-05-17T12:15:45;101371.38;;;21.84;22.10
80335;BME280;69653;52.674;13.574;2023-05-17T12:18:12;101387.03;;;21.60;22.26
80335;BME280;69653;52.674;13.574;2023-05-17T12:20:52;101388.78;;;21.65;22.61
80335;BME280;69653;52.674;13.574;2023-05-17T12:23:34;101374.88;;;21.81;23.41
80335;BME280;69653;52.674;13.574;2023-05-17T12:26:13;101364.97;;;21.95;23.14
80335;BME280;69653;52.674;13.574;2023-05-17T12:28:42;101363.78;;;21.96;21.99
80335;BME280;69653;52.674;13.574;2023-05-17T12:31:13;101394.25;;;22.20;21.69
80335;BME280;69653;52.674;13.574;2023-05-17T12:33:42;101358.94;;;22.09;20.81
80335;BME280;69653;52.674;13.574;2023-05-17T12:36:14;101389.13;;;22.22;20.71
80335;BME280;69653;52.674;13.574;2023-05-17T12:38:40;101387.53;;;22.06;20.91
80335;BME280;69653;52.674;13.574;2023-05-17T12:41:08;101364.97;;;21.95;21.49
80335;BME280;69653;52.674;13.574;2023-05-17T12:43:36;101370.53;;;22.11;21.85
80335;BME280;69653;52.674;13.574;2023-05-17T12:46:11;101386.06;;;21.96;21.64
80335;BME280;69653;52.674;13.574;2023-05-17T12:48:38;101382.47;;;22.11;21.80
80335;BME280;69653;52.674;13.574;2023-05-17T12:51:15;101397.13;;;22.24;22.12
80335;BME280;69653;52.674;13.574;2023-05-17T12:53:43;101374.94;;;22.28;23.06
80335;BME280;69653;52.674;13.574;2023-05-17T12:56:15;101394.63;;;22.03;22.48
80335;BME280;69653;52.674;13.574;2023-05-17T12:58:40;101384.47;;;21.95;22.68
80335;BME280;69653;52.674;13.574;2023-05-17T13:01:06;101398.28;;;21.92;23.24
80335;BME280;69653;52.674;13.574;2023-05-17T13:03:33;101378.34;;;21.77;23.65
80335;BME280;69653;52.674;13.574;2023-05-17T13:06:04;101373.22;;;21.64;22.85